Latest Weather Observations for Ngukurr AWS

IDD60801

Issued at 3:05 pm CST Friday 22 August 2014 (issued every 30 minutes, with the page automatically refreshed every 10 minutes)

About weather observations | Map of weather stations | Latest weather observations for NT | Other Formats
Station Details ID: 014299 Name: NGUKURR AIRPORT Lat: -14.72 Lon: 134.75 Height: 14.46 m
Data from the previous 72 hours. | See also: Recent months at Ngukurr AWS
Date/Time
CST
Temp
°C
App
Temp
°C
Dew
Point
Rel
Hum
%
Delta-T
°C
Wind Press
QNH
hPa
Press
MSL
hPa
Rain
since 9 am
mm
Dir
 
Spd
km/h
Gust
km/h
Spd
kts
Gust
kts
22/03:00pm 29.2 23.6 -6.9 9 15.2 ENE 15 26 8 14 1013.3 1013.3 0.0
22/02:30pm 29.7 24.1 -6.5 9 15.4 E 15 24 8 13 1013.7 1013.7 0.0
22/02:00pm 29.2 23.9 -6.9 9 15.2 ESE 13 26 7 14 1014.3 - 0.0
22/01:30pm 29.3 23.8 -5.4 10 15.0 ENE 15 24 8 13 1014.8 1014.8 0.0
22/01:00pm 28.8 23.6 -5.8 10 14.8 E 13 20 7 11 1015.4 - 0.0
22/12:30pm 28.5 22.9 -6.0 10 14.6 E 15 41 8 22 1016.0 1016.0 0.0
22/12:00pm 28.0 22.4 -6.4 10 14.4 E 15 28 8 15 1016.7 1016.7 0.0
22/11:30am 27.1 20.8 -5.9 11 13.8 SE 19 26 10 14 1017.4 1017.4 0.0
22/11:00am 26.6 20.9 -4.0 13 13.2 SE 17 30 9 16 1018.0 - 0.0
22/10:30am 25.9 19.5 -4.6 13 12.9 ESE 20 32 11 17 1018.5 1018.5 0.0
22/10:00am 24.3 19.1 -3.1 16 11.8 SE 15 26 8 14 1018.7 - 0.0
22/09:30am 23.1 18.3 -2.5 18 11.0 SE 13 22 7 12 1018.9 1018.9 0.0
22/09:00am 20.2 17.6 4.3 35 7.6 ESE 7 13 4 7 1018.8 1018.8 0.0
22/08:30am 17.6 15.3 4.9 43 6.1 SE 6 9 3 5 1018.6 1018.6 0.0
22/08:00am 13.6 13.3 8.7 72 2.5 CALM 0 0 0 0 1018.4 - 0.0
22/07:30am 10.9 10.3 7.2 78 1.8 CALM 0 0 0 0 1018.1 1018.1 0.0
22/07:00am 7.3 6.0 4.3 81 1.3 CALM 0 0 0 0 1017.9 - 0.0
22/06:30am 7.3 5.7 4.4 82 1.3 N 2 7 1 4 1017.7 1017.7 0.0
22/06:00am 7.8 6.6 4.4 79 1.5 ESE 0 0 0 0 1017.5 1017.5 0.0
22/05:30am 8.1 6.8 4.1 76 1.7 CALM 0 0 0 0 1017.2 1017.2 0.0
22/05:00am 8.3 7.0 4.3 76 1.7 CALM 0 0 0 0 1016.9 - 0.0
22/04:30am 9.2 8.1 5.0 75 1.9 CALM 0 0 0 0 1017.0 1017.0 0.0
22/04:00am 9.7 8.6 5.1 73 2.1 CALM 0 4 0 2 1016.9 - 0.0
22/03:30am 9.6 8.4 4.6 71 2.2 CALM 0 0 0 0 1016.8 1016.8 0.0
22/03:00am 9.5 8.1 3.7 67 2.5 CALM 0 0 0 0 1016.9 1016.9 0.0
22/02:30am 10.3 9.2 5.3 71 2.3 SSW 0 0 0 0 1016.9 1016.9 0.0
22/02:00am 10.8 9.5 4.0 63 3.0 CALM 0 0 0 0 1017.1 - 0.0
22/01:30am 11.7 10.3 5.3 65 2.9 SSW 2 4 1 2 1017.1 1017.1 0.0
22/01:00am 12.0 10.6 5.4 64 3.1 SSW 2 2 1 1 1017.1 - 0.0
22/12:30am 12.3 10.5 5.2 62 3.3 SSW 4 6 2 3 1017.2 1017.2 0.0
22/12:00am 12.9 11.7 4.6 57 3.8 SW 0 0 0 0 1017.2 1017.2 0.0
 
Date/Time
CST
Temp
°C
App
Temp
°C
Dew
Point
Rel
Hum
%
Delta-T
°C
Wind Press
QNH
hPa
Press
MSL
hPa
Rain
since 9 am
mm
Dir
 
Spd
km/h
Gust
km/h
Spd
kts
Gust
kts
21/11:30pm 14.0 12.9 4.9 54 4.2 CALM 0 0 0 0 1017.2 1017.2 0.0
21/11:00pm 14.4 12.5 4.7 52 4.5 SSE 4 4 2 2 1017.1 - 0.0
21/10:30pm 15.1 12.7 4.2 48 5.0 ESE 6 7 3 4 1017.0 1017.0 0.0
21/10:00pm 16.0 13.6 4.1 45 5.5 SE 6 7 3 4 1017.1 - 0.0
21/09:30pm 17.1 14.9 3.4 40 6.3 ESE 4 6 2 3 1016.7 1016.7 0.0
21/09:00pm 17.6 14.8 2.0 35 7.0 SE 6 7 3 4 1016.6 1016.6 0.0
21/08:30pm 19.4 17.0 2.3 32 7.9 ESE 4 6 2 3 1016.2 1016.2 0.0
21/08:00pm 20.5 18.0 1.4 28 8.7 ESE 4 6 2 3 1015.8 - 0.0
21/07:30pm 22.1 18.9 0.6 24 9.8 E 7 11 4 6 1015.4 1015.4 0.0
21/07:00pm 21.9 18.4 -5.9 15 11.1 S 4 17 2 9 1014.7 - 0.0
21/06:30pm 25.1 21.1 -7.4 11 13.0 S 6 7 3 4 1014.2 1014.2 0.0
21/06:00pm 27.5 23.3 -8.2 9 14.4 S 7 13 4 7 1013.9 1013.9 0.0
21/05:30pm 28.3 23.4 -7.6 9 14.8 S 11 19 6 10 1013.6 1013.6 0.0
21/05:00pm 29.0 24.9 -7.0 9 15.1 SSW 7 15 4 8 1013.5 - 0.0
21/04:30pm 28.9 24.0 -7.1 9 15.0 SSE 11 17 6 9 1013.5 1013.5 0.0
21/04:00pm 29.5 25.3 -8.2 8 15.5 S 7 13 4 7 1013.4 - 0.0
21/03:30pm 29.3 24.8 -6.8 9 15.2 S 9 17 5 9 1013.7 1013.7 0.0
21/03:00pm 29.3 24.8 -6.8 9 15.2 SSW 9 15 5 8 1013.7 1013.7 0.0
21/02:30pm 28.2 23.8 -6.3 10 14.5 S 9 22 5 12 1014.2 1014.2 0.0
21/02:00pm 28.2 23.8 -6.3 10 14.5 S 9 19 5 10 1014.7 - 0.0
21/01:30pm 28.5 23.4 -4.8 11 14.4 S 13 22 7 12 1015.2 1015.2 0.0
21/01:00pm 28.5 22.1 -4.8 11 14.4 SE 20 30 11 16 1015.7 - 0.0
21/12:30pm 27.8 22.9 -3.1 13 13.7 SE 13 20 7 11 1016.3 1016.3 0.0
21/12:00pm 27.2 22.3 -3.6 13 13.5 ESE 13 22 7 12 1016.8 1016.8 0.0
21/11:30am 27.0 21.4 -2.7 14 13.2 SE 17 26 9 14 1017.4 1017.4 0.0
21/11:00am 26.2 19.6 -3.4 14 12.9 ESE 22 32 12 17 1017.9 - 0.0
21/10:30am 25.4 18.9 -2.2 16 12.2 ESE 22 32 12 17 1018.3 1018.3 0.0
21/10:00am 24.6 18.2 -2.0 17 11.8 SE 22 33 12 18 1018.5 - 0.0
21/09:30am 23.6 18.0 0.0 21 10.7 ESE 19 30 10 16 1018.6 1018.6 0.0
21/09:00am 22.3 17.6 0.8 24 9.8 SE 15 28 8 15 1018.4 1018.4 0.0
21/08:30am 19.8 16.2 3.1 33 7.8 SSE 11 22 6 12 1018.1 1018.1 0.0
21/08:00am 17.1 15.8 7.5 53 4.8 SE 4 7 2 4 1017.9 - 0.0
21/07:30am 14.1 14.0 10.7 80 1.8 SSE 2 4 1 2 1017.4 1017.4 0.0
21/07:00am 10.4 10.2 9.2 92 0.6 CALM 0 4 0 2 1017.2 - 0.0
21/06:30am 9.9 9.1 8.2 89 0.8 N 2 4 1 2 1016.8 1016.8 0.0
21/06:00am 11.1 11.2 10.2 94 0.5 CALM 0 4 0 2 1016.4 1016.4 0.0
21/05:30am 10.6 10.3 8.5 87 1.0 CALM 0 0 0 0 1016.2 1016.2 0.0
21/05:00am 12.0 10.9 10.1 88 1.0 SSW 6 7 3 4 1016.0 - 0.0
21/04:30am 11.5 11.2 8.5 82 1.5 CALM 0 2 0 1 1016.0 1016.0 0.0
21/04:00am 12.0 11.8 9.2 83 1.4 CALM 0 0 0 0 1015.9 - 0.0
21/03:30am 12.4 11.9 9.4 82 1.5 N 2 4 1 2 1015.9 1015.9 0.0
21/03:00am 12.6 11.7 9.1 79 1.8 NNE 4 4 2 2 1016.0 1016.0 0.0
21/02:30am 13.2 12.8 8.3 72 2.4 CALM 0 4 0 2 1016.3 1016.3 0.0
21/02:00am 14.4 13.5 10.6 78 2.0 S 6 7 3 4 1016.4 - 0.0
21/01:30am 14.6 13.5 9.8 73 2.5 S 6 7 3 4 1016.3 1016.3 0.0
21/01:00am 14.8 13.6 9.6 71 2.7 S 6 7 3 4 1016.3 - 0.0
21/12:30am 14.9 13.6 9.1 68 3.0 S 6 7 3 4 1016.2 1016.2 0.0
21/12:00am 15.3 14.8 9.2 67 3.1 S 2 4 1 2 1016.1 1016.1 0.0
 
Date/Time
CST
Temp
°C
App
Temp
°C
Dew
Point
Rel
Hum
%
Delta-T
°C
Wind Press
QNH
hPa
Press
MSL
hPa
Rain
since 9 am
mm
Dir
 
Spd
km/h
Gust
km/h
Spd
kts
Gust
kts
20/11:30pm 15.3 14.5 8.3 63 3.5 SSE 2 4 1 2 1016.2 1016.2 0.0
20/11:00pm 15.7 14.6 7.0 56 4.3 S 2 4 1 2 1016.3 - 0.0
20/10:30pm 16.9 16.2 7.0 52 4.9 CALM 0 0 0 0 1016.4 1016.4 0.0
20/10:00pm 17.8 17.3 7.8 52 5.1 CALM 0 2 0 1 1016.3 - 0.0
20/09:30pm 19.0 17.6 7.4 47 5.9 E 4 6 2 3 1016.3 1016.3 0.0
20/09:00pm 19.6 18.3 7.7 46 6.1 E 4 6 2 3 1016.1 1016.1 0.0
20/08:30pm 20.3 18.9 7.3 43 6.6 ESE 4 6 2 3 1015.8 1015.8 0.0
20/08:00pm 21.4 19.7 7.6 41 7.1 ESE 6 7 3 4 1015.4 - 0.0
20/07:30pm 22.6 20.6 7.2 37 8.0 ESE 7 11 4 6 1015.0 1015.0 0.0
20/07:00pm 23.9 21.2 5.8 31 9.2 ESE 9 15 5 8 1014.6 - 0.0
20/06:30pm 25.5 22.1 4.0 25 10.7 ESE 11 17 6 9 1014.1 1014.1 0.0
20/06:00pm 27.3 23.3 3.1 21 12.0 E 13 19 7 10 1013.6 1013.6 0.0
20/05:30pm 29.2 25.0 1.7 17 13.5 SE 13 19 7 10 1013.1 1013.1 0.0
20/05:00pm 30.5 27.5 1.0 15 14.4 S 6 15 3 8 1012.9 - 0.0
20/04:30pm 30.8 27.7 0.2 14 14.7 SSE 6 17 3 9 1012.8 1012.8 0.0
20/04:00pm 30.5 27.9 1.0 15 14.4 SSE 4 7 2 4 1012.9 - 0.0
20/03:30pm 30.1 27.2 1.5 16 14.0 SE 6 15 3 8 1013.2 1013.2 0.0
20/03:00pm 30.3 27.4 1.7 16 14.1 SSE 6 15 3 8 1013.5 1013.5 0.0
20/02:30pm 30.2 27.1 1.6 16 14.1 ESE 7 13 4 7 1014.0 1014.0 0.0
20/02:00pm 29.4 26.0 1.8 17 13.5 SSE 9 17 5 9 1014.6 - 0.0
20/01:30pm 29.5 26.5 1.9 17 13.6 WSW 7 15 4 8 1015.0 1015.0 0.0
20/01:00pm 28.4 25.5 2.6 19 12.8 W 7 15 4 8 1015.6 - 0.0
20/12:30pm 28.2 25.6 3.1 20 12.5 S 6 11 3 6 1016.2 1016.2 0.0
20/12:00pm 27.7 24.6 3.4 21 12.1 ESE 9 19 5 10 1016.7 1016.7 0.0
20/11:30am 27.3 24.2 3.7 22 11.8 SSE 9 19 5 10 1017.2 1017.2 0.0
20/11:00am 26.5 23.0 3.7 23 11.3 ESE 11 20 6 11 1017.7 - 0.0
20/10:30am 25.7 23.6 5.8 28 10.2 S 6 15 3 8 1018.1 1018.1 0.0
20/10:00am 24.0 22.1 6.7 33 8.9 SSE 6 13 3 7 1018.2 - 0.0
20/09:30am 22.3 21.6 8.4 41 7.3 N 2 4 1 2 1018.2 1018.2 0.0
20/09:00am 20.5 19.7 9.7 50 5.8 SE 4 7 2 4 1018.2 1018.2 0.0
20/08:30am 18.3 17.5 9.6 57 4.6 SE 4 6 2 3 1018.0 1018.0 0.0
20/08:00am 16.2 15.9 10.1 67 3.2 SSW 2 6 1 3 1017.9 - 0.0
20/07:30am 13.2 13.1 9.6 79 1.8 CALM 0 0 0 0 1017.8 1017.8 0.0
20/07:00am 10.7 10.2 7.8 82 1.4 CALM 0 0 0 0 1017.5 - 0.0
20/06:30am 10.7 10.2 7.9 83 1.4 CALM 0 0 0 0 1017.2 1017.2 0.0
20/06:00am 10.9 10.5 8.3 84 1.3 CALM 0 0 0 0 1017.0 1017.0 0.0
20/05:30am 11.1 10.6 8.0 81 1.5 CALM 0 0 0 0 1016.7 1016.7 0.0
20/05:00am 12.1 11.0 8.4 78 1.8 ESE 4 6 2 3 1016.4 - 0.0
20/04:30am 13.4 12.3 10.0 80 1.8 S 6 9 3 5 1016.0 1016.0 0.0
20/04:00am 11.3 10.6 7.0 75 2.1 CALM 0 0 0 0 1015.7 - 0.0
20/03:30am 11.8 10.7 6.9 72 2.3 SW 2 4 1 2 1015.5 1015.5 0.0
20/03:00am 12.4 10.7 7.7 73 2.3 SW 6 7 3 4 1015.7 1015.7 0.0
20/02:30am 12.5 11.9 7.4 71 2.5 CALM 0 0 0 0 1015.7 1015.7 0.0
20/02:00am 12.4 11.3 5.3 62 3.3 CALM 0 0 0 0 1015.9 - 0.0
20/01:30am 13.6 13.1 7.8 68 2.9 CALM 0 0 0 0 1015.9 1015.9 0.0
20/01:00am 13.7 13.1 7.2 65 3.2 CALM 0 0 0 0 1015.9 - 0.0
20/12:30am 13.9 13.1 6.7 62 3.5 CALM 0 0 0 0 1016.2 1016.2 0.0
20/12:00am 14.2 13.3 6.1 58 3.9 CALM 0 0 0 0 1016.4 1016.4 0.0
 
Date/Time
CST
Temp
°C
App
Temp
°C
Dew
Point
Rel
Hum
%
Delta-T
°C
Wind Press
QNH
hPa
Press
MSL
hPa
Rain
since 9 am
mm
Dir
 
Spd
km/h
Gust
km/h
Spd
kts
Gust
kts
19/11:30pm 15.4 14.5 5.9 53 4.6 CALM 0 0 0 0 1016.5 1016.5 0.0
19/11:00pm 16.4 15.3 7.1 54 4.6 E 2 2 1 1 1016.7 - 0.0
19/10:30pm 16.9 15.2 6.1 49 5.3 E 4 4 2 2 1016.7 1016.7 0.0
19/10:00pm 17.4 15.5 5.0 44 5.9 E 4 4 2 2 1016.6 - 0.0
19/09:30pm 18.8 16.6 5.3 41 6.6 E 6 7 3 4 1016.3 1016.3 0.0
19/09:00pm 19.3 16.9 4.3 37 7.2 ENE 6 7 3 4 1016.3 1016.3 0.0
19/08:30pm 20.1 17.4 3.8 34 7.8 E 7 9 4 5 1016.0 1016.0 0.0
19/08:00pm 21.3 18.2 3.5 31 8.5 E 9 15 5 8 1015.6 - 0.0
19/07:30pm 22.1 19.3 3.3 29 9.0 E 7 13 4 7 1015.1 1015.1 0.0
19/07:00pm 23.0 19.7 2.5 26 9.7 ESE 9 15 5 8 1014.6 - 0.0
19/06:30pm 24.2 20.5 2.4 24 10.4 E 11 17 6 9 1014.0 1014.0 0.0
19/06:00pm 25.9 21.2 1.2 20 11.7 E 15 24 8 13 1013.7 1013.7 0.0
19/05:30pm 28.5 24.6 -1.6 14 13.8 E 9 13 5 7 1013.4 1013.4 0.0
19/05:00pm 28.7 24.4 -1.4 14 13.9 SE 11 17 6 9 1013.4 - 0.0
19/04:30pm 29.0 25.8 -3.2 12 14.4 SSE 4 7 2 4 1013.3 1013.3 0.0
19/04:00pm 29.3 25.3 -1.9 13 14.3 SSE 9 15 5 8 1013.4 - 0.0
19/03:30pm 29.4 25.3 -2.9 12 14.6 ENE 9 22 5 12 1013.5 1013.5 0.0

Other Formats:

Comma delimited format used in spreadsheet applications
http://www.bom.gov.au/fwo/IDD60801/IDD60801.94106.axf

JavaScript Object Notation format (JSON) in row-major order
http://www.bom.gov.au/fwo/IDD60801/IDD60801.94106.json